sensor_id;sensor_type;location;lat;lon;timestamp;temperature;humidity
20827;DHT22;10574;52.508;13.236;2023-05-10T00:02:03;12.90;99.90
20827;DHT22;10574;52.508;13.236;2023-05-10T00:04:30;12.80;99.90
20827;DHT22;10574;52.508;13.236;2023-05-10T00:06:59;12.80;99.90
20827;DHT22;10574;52.508;13.236;2023-05-10T00:09:26;12.80;99.90
20827;DHT22;10574;52.508;13.236;2023-05-10T00:11:54;12.80;99.90
20827;DHT22;10574;52.508;13.236;2023-05-10T00:14:23;12.80;99.90
20827;DHT22;10574;52.508;13.236;2023-05-10T00:16:51;12.80;99.90
20827;DHT22;10574;52.508;13.236;2023-05-10T00:19:19;12.80;99.90
20827;DHT22;10574;52.508;13.236;2023-05-10T00:21:46;12.70;99.90
20827;DHT22;10574;52.508;13.236;2023-05-10T00:24:14;12.70;99.90
20827;DHT22;10574;52.508;13.236;2023-05-10T00:26:42;12.70;99.90
20827;DHT22;10574;52.508;13.236;2023-05-10T00:29:09;12.80;99.90
20827;DHT22;10574;52.508;13.236;2023-05-10T00:31:37;12.80;99.90
20827;DHT22;10574;52.508;13.236;2023-05-10T00:34:05;12.80;99.90
20827;DHT22;10574;52.508;13.236;2023-05-10T00:36:33;12.80;99.90
20827;DHT22;10574;52.508;13.236;2023-05-10T00:39:00;12.80;99.90
20827;DHT22;10574;52.508;13.236;2023-05-10T00:41:30;12.70;99.90
20827;DHT22;10574;52.508;13.236;2023-05-10T00:44:00;12.70;99.90
20827;DHT22;10574;52.508;13.236;2023-05-10T00:46:29;12.70;99.90
20827;DHT22;10574;52.508;13.236;2023-05-10T00:48:57;12.70;99.90
20827;DHT22;10574;52.508;13.236;2023-05-10T00:51:24;12.70;99.90
20827;DHT22;10574;52.508;13.236;2023-05-10T00:53:52;12.60;99.90
20827;DHT22;10574;52.508;13.236;2023-05-10T00:56:20;12.60;99.90
20827;DHT22;10574;52.508;13.236;2023-05-10T00:58:49;12.70;99.90
20827;DHT22;10574;52.508;13.236;2023-05-10T01:01:17;12.60;99.90
20827;DHT22;10574;52.508;13.236;2023-05-10T01:03:47;12.60;99.90
20827;DHT22;10574;52.508;13.236;2023-05-10T01:06:14;12.60;99.90
20827;DHT22;10574;52.508;13.236;2023-05-10T01:08:42;12.50;99.90
20827;DHT22;10574;52.508;13.236;2023-05-10T01:11:10;12.50;99.90
20827;DHT22;10574;52.508;13.236;2023-05-10T01:13:39;12.40;99.90
20827;DHT22;10574;52.508;13.236;2023-05-10T01:16:07;12.40;99.90
20827;DHT22;10574;52.508;13.236;2023-05-10T01:18:38;12.30;99.90
20827;DHT22;10574;52.508;13.236;2023-05-10T01:21:28;12.30;99.90
20827;DHT22;10574;52.508;13.236;2023-05-10T01:24:09;12.20;99.90
20827;DHT22;10574;52.508;13.236;2023-05-10T01:26:39;12.20;99.90
20827;DHT22;10574;52.508;13.236;2023-05-10T01:37:25;12.00;99.90
20827;DHT22;10574;52.508;13.236;2023-05-10T01:40:25;12.00;99.90
20827;DHT22;10574;52.508;13.236;2023-05-10T01:42:26;12.00;99.90
20827;DHT22;10574;52.508;13.236;2023-05-10T01:45:18;12.00;99.90
20827;DHT22;10574;52.508;13.236;2023-05-10T01:47:35;12.00;99.90
20827;DHT22;10574;52.508;13.236;2023-05-10T01:50:04;11.90;99.90
20827;DHT22;10574;52.508;13.236;2023-05-10T01:52:41;11.90;99.90
20827;DHT22;10574;52.508;13.236;2023-05-10T01:55:09;11.90;99.90
20827;DHT22;10574;52.508;13.236;2023-05-10T01:57:40;11.80;99.90
20827;DHT22;10574;52.508;13.236;2023-05-10T02:00:10;11.80;99.90
20827;DHT22;10574;52.508;13.236;2023-05-10T02:02:39;11.80;99.90
20827;DHT22;10574;52.508;13.236;2023-05-10T02:05:09;11.80;99.90
20827;DHT22;10574;52.508;13.236;2023-05-10T02:07:38;11.70;99.90
20827;DHT22;10574;52.508;13.236;2023-05-10T02:10:07;11.70;99.90
20827;DHT22;10574;52.508;13.236;2023-05-10T02:12:42;11.70;99.90
20827;DHT22;10574;52.508;13.236;2023-05-10T02:15:07;11.60;99.90
20827;DHT22;10574;52.508;13.236;2023-05-10T02:17:37;11.50;99.90
20827;DHT22;10574;52.508;13.236;2023-05-10T02:20:07;11.50;99.90
20827;DHT22;10574;52.508;13.236;2023-05-10T02:22:36;11.40;99.90
20827;DHT22;10574;52.508;13.236;2023-05-10T02:25:07;11.50;99.90
20827;DHT22;10574;52.508;13.236;2023-05-10T02:27:37;11.40;99.90
20827;DHT22;10574;52.508;13.236;2023-05-10T02:30:06;11.40;99.90
20827;DHT22;10574;52.508;13.236;2023-05-10T02:32:35;11.40;99.90
20827;DHT22;10574;52.508;13.236;2023-05-10T02:35:04;11.30;99.90
20827;DHT22;10574;52.508;13.236;2023-05-10T02:37:33;11.30;99.90
20827;DHT22;10574;52.508;13.236;2023-05-10T02:40:02;11.30;99.90
20827;DHT22;10574;52.508;13.236;2023-05-10T02:42:35;11.30;99.90
20827;DHT22;10574;52.508;13.236;2023-05-10T02:45:05;11.30;99.90
20827;DHT22;10574;52.508;13.236;2023-05-10T02:47:34;11.30;99.90
20827;DHT22;10574;52.508;13.236;2023-05-10T02:50:01;11.10;99.90
20827;DHT22;10574;52.508;13.236;2023-05-10T02:52:39;11.10;99.90
20827;DHT22;10574;52.508;13.236;2023-05-10T02:55:07;11.10;99.90
20827;DHT22;10574;52.508;13.236;2023-05-10T02:57:38;11.10;99.90
20827;DHT22;10574;52.508;13.236;2023-05-10T03:00:07;11.00;99.90
20827;DHT22;10574;52.508;13.236;2023-05-10T03:02:35;11.00;99.90
20827;DHT22;10574;52.508;13.236;2023-05-10T03:05:03;11.00;99.90
20827;DHT22;10574;52.508;13.236;2023-05-10T03:07:31;11.00;99.90
20827;DHT22;10574;52.508;13.236;2023-05-10T03:09:59;10.90;99.90
20827;DHT22;10574;52.508;13.236;2023-05-10T03:12:47;10.90;99.90
20827;DHT22;10574;52.508;13.236;2023-05-10T03:18:00;10.80;99.90
20827;DHT22;10574;52.508;13.236;2023-05-10T03:20:42;10.80;99.90
20827;DHT22;10574;52.508;13.236;2023-05-10T03:23:30;10.80;99.90
20827;DHT22;10574;52.508;13.236;2023-05-10T03:25:56;10.80;99.90
20827;DHT22;10574;52.508;13.236;2023-05-10T03:28:26;10.80;99.90
20827;DHT22;10574;52.508;13.236;2023-05-10T03:30:54;10.80;99.90
20827;DHT22;10574;52.508;13.236;2023-05-10T03:33:22;10.80;99.90
20827;DHT22;10574;52.508;13.236;2023-05-10T03:35:50;10.80;99.90
20827;DHT22;10574;52.508;13.236;2023-05-10T03:38:17;10.80;99.90
20827;DHT22;10574;52.508;13.236;2023-05-10T03:40:45;10.80;99.90
20827;DHT22;10574;52.508;13.236;2023-05-10T03:43:13;10.70;99.90
20827;DHT22;10574;52.508;13.236;2023-05-10T03:45:41;10.70;99.90
20827;DHT22;10574;52.508;13.236;2023-05-10T03:48:08;10.70;99.90
20827;DHT22;10574;52.508;13.236;2023-05-10T03:50:36;10.70;99.90
20827;DHT22;10574;52.508;13.236;2023-05-10T03:53:05;10.70;99.90
20827;DHT22;10574;52.508;13.236;2023-05-10T03:55:33;10.70;99.90
20827;DHT22;10574;52.508;13.236;2023-05-10T03:58:02;10.70;99.90
20827;DHT22;10574;52.508;13.236;2023-05-10T04:00:30;10.80;99.90
20827;DHT22;10574;52.508;13.236;2023-05-10T04:02:59;10.70;99.90
20827;DHT22;10574;52.508;13.236;2023-05-10T04:05:27;10.70;99.90
20827;DHT22;10574;52.508;13.236;2023-05-10T04:07:56;10.80;99.90
20827;DHT22;10574;52.508;13.236;2023-05-10T04:10:24;10.80;99.90
20827;DHT22;10574;52.508;13.236;2023-05-10T04:12:51;10.90;99.90
20827;DHT22;10574;52.508;13.236;2023-05-10T04:15:19;10.90;99.90
20827;DHT22;10574;52.508;13.236;2023-05-10T04:17:47;10.90;99.90
20827;DHT22;10574;52.508;13.236;2023-05-10T04:20:15;11.00;99.90
20827;DHT22;10574;52.508;13.236;2023-05-10T04:22:43;11.00;99.90
20827;DHT22;10574;52.508;13.236;2023-05-10T04:25:11;11.00;99.90
20827;DHT22;10574;52.508;13.236;2023-05-10T04:27:38;11.10;99.90
20827;DHT22;10574;52.508;13.236;2023-05-10T04:30:07;11.30;99.90
20827;DHT22;10574;52.508;13.236;2023-05-10T04:32:35;11.60;99.90
20827;DHT22;10574;52.508;13.236;2023-05-10T04:35:02;11.90;99.90
20827;DHT22;10574;52.508;13.236;2023-05-10T04:37:31;12.10;99.90
20827;DHT22;10574;52.508;13.236;2023-05-10T04:39:59;12.10;99.90
20827;DHT22;10574;52.508;13.236;2023-05-10T04:42:26;12.10;99.90
20827;DHT22;10574;52.508;13.236;2023-05-10T04:44:54;12.30;99.90
20827;DHT22;10574;52.508;13.236;2023-05-10T04:47:22;12.50;99.90
20827;DHT22;10574;52.508;13.236;2023-05-10T04:49:49;12.70;99.90
20827;DHT22;10574;52.508;13.236;2023-05-10T04:52:17;12.90;99.90
20827;DHT22;10574;52.508;13.236;2023-05-10T04:54:45;13.10;99.90
20827;DHT22;10574;52.508;13.236;2023-05-10T04:57:13;13.60;99.90
20827;DHT22;10574;52.508;13.236;2023-05-10T04:59:40;14.50;99.90
20827;DHT22;10574;52.508;13.236;2023-05-10T05:02:09;15.30;99.90
20827;DHT22;10574;52.508;13.236;2023-05-10T05:04:36;15.80;99.90
20827;DHT22;10574;52.508;13.236;2023-05-10T05:07:04;16.60;99.90
20827;DHT22;10574;52.508;13.236;2023-05-10T05:09:32;16.50;99.90
20827;DHT22;10574;52.508;13.236;2023-05-10T05:12:00;16.30;99.90
20827;DHT22;10574;52.508;13.236;2023-05-10T05:14:28;15.90;99.90
20827;DHT22;10574;52.508;13.236;2023-05-10T05:16:55;16.10;99.90
20827;DHT22;10574;52.508;13.236;2023-05-10T05:19:25;16.10;99.90
20827;DHT22;10574;52.508;13.236;2023-05-10T05:21:54;16.30;99.90
20827;DHT22;10574;52.508;13.236;2023-05-10T05:24:22;16.20;99.90
20827;DHT22;10574;52.508;13.236;2023-05-10T05:26:49;16.30;99.90
20827;DHT22;10574;52.508;13.236;2023-05-10T05:29:17;16.90;99.90
20827;DHT22;10574;52.508;13.236;2023-05-10T05:31:45;17.10;99.90
20827;DHT22;10574;52.508;13.236;2023-05-10T05:34:13;17.60;99.90
20827;DHT22;10574;52.508;13.236;2023-05-10T05:36:40;18.20;97.40
20827;DHT22;10574;52.508;13.236;2023-05-10T05:39:08;17.40;97.60
20827;DHT22;10574;52.508;13.236;2023-05-10T05:41:36;17.40;98.00
20827;DHT22;10574;52.508;13.236;2023-05-10T05:44:04;17.30;97.70
20827;DHT22;10574;52.508;13.236;2023-05-10T05:46:32;16.70;99.30
20827;DHT22;10574;52.508;13.236;2023-05-10T05:49:00;16.40;99.90
20827;DHT22;10574;52.508;13.236;2023-05-10T05:51:27;16.30;99.90
20827;DHT22;10574;52.508;13.236;2023-05-10T05:53:55;16.50;99.80
20827;DHT22;10574;52.508;13.236;2023-05-10T05:56:23;16.60;99.90
20827;DHT22;10574;52.508;13.236;2023-05-10T05:58:51;16.80;99.50
20827;DHT22;10574;52.508;13.236;2023-05-10T06:01:19;16.80;99.90
20827;DHT22;10574;52.508;13.236;2023-05-10T06:03:47;16.60;99.20
20827;DHT22;10574;52.508;13.236;2023-05-10T06:06:15;16.20;99.90
20827;DHT22;10574;52.508;13.236;2023-05-10T06:08:42;16.30;99.90
20827;DHT22;10574;52.508;13.236;2023-05-10T06:11:10;16.10;99.90
20827;DHT22;10574;52.508;13.236;2023-05-10T06:13:38;16.10;99.90
20827;DHT22;10574;52.508;13.236;2023-05-10T06:16:06;16.40;99.90
20827;DHT22;10574;52.508;13.236;2023-05-10T06:18:34;16.40;99.90
20827;DHT22;10574;52.508;13.236;2023-05-10T06:21:01;16.20;99.90
20827;DHT22;10574;52.508;13.236;2023-05-10T06:23:29;16.70;99.90
20827;DHT22;10574;52.508;13.236;2023-05-10T06:25:57;16.80;99.20
20827;DHT22;10574;52.508;13.236;2023-05-10T06:28:24;16.80;99.80
20827;DHT22;10574;52.508;13.236;2023-05-10T06:30:52;16.80;99.90
20827;DHT22;10574;52.508;13.236;2023-05-10T06:33:20;16.90;99.10
20827;DHT22;10574;52.508;13.236;2023-05-10T06:35:48;17.40;98.70
20827;DHT22;10574;52.508;13.236;2023-05-10T06:38:16;17.40;97.90
20827;DHT22;10574;52.508;13.236;2023-05-10T06:40:44;17.30;98.20
20827;DHT22;10574;52.508;13.236;2023-05-10T06:43:11;17.30;98.70
20827;DHT22;10574;52.508;13.236;2023-05-10T06:45:39;17.70;99.30
20827;DHT22;10574;52.508;13.236;2023-05-10T06:48:07;18.20;97.10
20827;DHT22;10574;52.508;13.236;2023-05-10T06:50:35;17.80;97.10
20827;DHT22;10574;52.508;13.236;2023-05-10T06:53:03;17.60;97.40
20827;DHT22;10574;52.508;13.236;2023-05-10T06:55:31;17.70;97.10
20827;DHT22;10574;52.508;13.236;2023-05-10T06:57:59;17.50;97.10
20827;DHT22;10574;52.508;13.236;2023-05-10T07:00:26;17.80;97.50
20827;DHT22;10574;52.508;13.236;2023-05-10T07:02:54;17.70;97.00
20827;DHT22;10574;52.508;13.236;2023-05-10T07:05:22;18.10;96.80
20827;DHT22;10574;52.508;13.236;2023-05-10T07:07:50;18.20;96.30
20827;DHT22;10574;52.508;13.236;2023-05-10T07:10:18;18.70;95.70
20827;DHT22;10574;52.508;13.236;2023-05-10T07:12:47;19.00;96.40
20827;DHT22;10574;52.508;13.236;2023-05-10T07:15:15;18.60;95.00
20827;DHT22;10574;52.508;13.236;2023-05-10T07:17:44;18.60;94.90
20827;DHT22;10574;52.508;13.236;2023-05-10T07:20:12;18.50;94.80
20827;DHT22;10574;52.508;13.236;2023-05-10T07:22:40;18.50;95.20
20827;DHT22;10574;52.508;13.236;2023-05-10T07:25:08;18.40;95.00
20827;DHT22;10574;52.508;13.236;2023-05-10T07:27:36;18.70;96.50
20827;DHT22;10574;52.508;13.236;2023-05-10T07:30:04;19.30;94.50
20827;DHT22;10574;52.508;13.236;2023-05-10T07:32:32;19.40;93.50
20827;DHT22;10574;52.508;13.236;2023-05-10T07:35:00;19.40;94.00
20827;DHT22;10574;52.508;13.236;2023-05-10T07:37:27;19.40;93.90
20827;DHT22;10574;52.508;13.236;2023-05-10T07:39:55;19.90;94.20
20827;DHT22;10574;52.508;13.236;2023-05-10T07:42:23;20.50;92.10
20827;DHT22;10574;52.508;13.236;2023-05-10T07:44:51;20.70;92.20
20827;DHT22;10574;52.508;13.236;2023-05-10T07:47:18;20.90;91.20
20827;DHT22;10574;52.508;13.236;2023-05-10T07:49:46;20.80;90.40
20827;DHT22;10574;52.508;13.236;2023-05-10T07:52:14;20.40;91.20
20827;DHT22;10574;52.508;13.236;2023-05-10T07:54:42;20.20;91.10
20827;DHT22;10574;52.508;13.236;2023-05-10T07:57:10;20.60;91.30
20827;DHT22;10574;52.508;13.236;2023-05-10T07:59:37;20.70;90.50
20827;DHT22;10574;52.508;13.236;2023-05-10T08:02:05;19.80;90.60
20827;DHT22;10574;52.508;13.236;2023-05-10T08:04:33;19.50;91.10
20827;DHT22;10574;52.508;13.236;2023-05-10T08:07:01;19.50;92.10
20827;DHT22;10574;52.508;13.236;2023-05-10T08:09:29;19.60;91.00
20827;DHT22;10574;52.508;13.236;2023-05-10T08:11:56;19.40;92.90
20827;DHT22;10574;52.508;13.236;2023-05-10T08:14:27;19.90;91.80
20827;DHT22;10574;52.508;13.236;2023-05-10T08:16:55;19.90;91.80
20827;DHT22;10574;52.508;13.236;2023-05-10T08:19:23;20.10;91.00
20827;DHT22;10574;52.508;13.236;2023-05-10T08:21:51;19.80;90.90
20827;DHT22;10574;52.508;13.236;2023-05-10T08:24:21;19.50;92.10
20827;DHT22;10574;52.508;13.236;2023-05-10T08:26:49;19.90;91.50
20827;DHT22;10574;52.508;13.236;2023-05-10T08:29:17;19.80;91.30
20827;DHT22;10574;52.508;13.236;2023-05-10T08:31:45;19.70;91.80
20827;DHT22;10574;52.508;13.236;2023-05-10T08:34:12;19.50;91.70
20827;DHT22;10574;52.508;13.236;2023-05-10T08:36:40;19.60;91.70
20827;DHT22;10574;52.508;13.236;2023-05-10T08:39:08;19.70;91.60
20827;DHT22;10574;52.508;13.236;2023-05-10T08:41:37;19.60;91.50
20827;DHT22;10574;52.508;13.236;2023-05-10T08:44:08;19.50;91.70
20827;DHT22;10574;52.508;13.236;2023-05-10T08:46:37;19.50;92.00
20827;DHT22;10574;52.508;13.236;2023-05-10T08:49:08;19.70;92.60
20827;DHT22;10574;52.508;13.236;2023-05-10T08:51:37;20.00;91.20
20827;DHT22;10574;52.508;13.236;2023-05-10T08:54:06;20.40;91.30
20827;DHT22;10574;52.508;13.236;2023-05-10T08:56:34;20.40;90.00
20827;DHT22;10574;52.508;13.236;2023-05-10T08:59:02;20.30;90.50
20827;DHT22;10574;52.508;13.236;2023-05-10T09:01:32;20.60;91.00
20827;DHT22;10574;52.508;13.236;2023-05-10T09:03:59;20.60;91.00
20827;DHT22;10574;52.508;13.236;2023-05-10T09:06:27;20.80;90.00
20827;DHT22;10574;52.508;13.236;2023-05-10T09:08:55;21.10;89.70
20827;DHT22;10574;52.508;13.236;2023-05-10T09:11:24;20.90;88.50
20827;DHT22;10574;52.508;13.236;2023-05-10T09:13:52;20.20;90.00
20827;DHT22;10574;52.508;13.236;2023-05-10T09:16:20;20.30;91.10
20827;DHT22;10574;52.508;13.236;2023-05-10T09:18:48;20.80;90.60
20827;DHT22;10574;52.508;13.236;2023-05-10T09:21:16;20.90;89.60
20827;DHT22;10574;52.508;13.236;2023-05-10T09:23:47;21.50;89.10
20827;DHT22;10574;52.508;13.236;2023-05-10T09:26:16;21.60;86.70
20827;DHT22;10574;52.508;13.236;2023-05-10T09:28:55;21.70;87.80
20827;DHT22;10574;52.508;13.236;2023-05-10T09:31:23;21.60;87.70
20827;DHT22;10574;52.508;13.236;2023-05-10T09:33:54;21.50;89.10
20827;DHT22;10574;52.508;13.236;2023-05-10T09:36:22;21.30;87.40
20827;DHT22;10574;52.508;13.236;2023-05-10T09:38:51;21.10;88.30
20827;DHT22;10574;52.508;13.236;2023-05-10T09:41:21;20.60;88.60
20827;DHT22;10574;52.508;13.236;2023-05-10T09:43:50;20.60;88.90
20827;DHT22;10574;52.508;13.236;2023-05-10T09:46:19;20.90;89.20
20827;DHT22;10574;52.508;13.236;2023-05-10T09:48:47;21.20;87.80
20827;DHT22;10574;52.508;13.236;2023-05-10T09:51:22;21.20;87.30
20827;DHT22;10574;52.508;13.236;2023-05-10T09:54:16;21.20;87.50
20827;DHT22;10574;52.508;13.236;2023-05-10T09:56:41;21.40;86.90
20827;DHT22;10574;52.508;13.236;2023-05-10T09:59:12;21.40;87.50
20827;DHT22;10574;52.508;13.236;2023-05-10T10:01:41;21.80;85.80
20827;DHT22;10574;52.508;13.236;2023-05-10T10:04:11;22.30;86.80
20827;DHT22;10574;52.508;13.236;2023-05-10T10:06:40;22.70;83.70
20827;DHT22;10574;52.508;13.236;2023-05-10T10:09:08;22.50;83.30
20827;DHT22;10574;52.508;13.236;2023-05-10T10:11:37;22.30;85.30
20827;DHT22;10574;52.508;13.236;2023-05-10T10:14:05;22.60;84.30
20827;DHT22;10574;52.508;13.236;2023-05-10T10:16:33;22.80;82.60
20827;DHT22;10574;52.508;13.236;2023-05-10T10:19:01;22.30;82.70
20827;DHT22;10574;52.508;13.236;2023-05-10T10:21:29;22.10;83.40
20827;DHT22;10574;52.508;13.236;2023-05-10T10:23:57;22.50;83.00
20827;DHT22;10574;52.508;13.236;2023-05-10T10:26:25;22.60;83.30
20827;DHT22;10574;52.508;13.236;2023-05-10T10:29:12;22.70;83.70
20827;DHT22;10574;52.508;13.236;2023-05-10T10:34:32;22.80;81.00
20827;DHT22;10574;52.508;13.236;2023-05-10T10:37:04;22.80;80.40
20827;DHT22;10574;52.508;13.236;2023-05-10T10:39:33;22.70;81.00
20827;DHT22;10574;52.508;13.236;2023-05-10T10:42:03;22.10;82.00
20827;DHT22;10574;52.508;13.236;2023-05-10T10:50:07;23.10;81.20
20827;DHT22;10574;52.508;13.236;2023-05-10T10:52:30;23.40;80.10
20827;DHT22;10574;52.508;13.236;2023-05-10T10:57:44;23.70;79.10
20827;DHT22;10574;52.508;13.236;2023-05-10T11:02:57;24.20;81.00
20827;DHT22;10574;52.508;13.236;2023-05-10T11:08:21;23.60;79.80
20827;DHT22;10574;52.508;13.236;2023-05-10T11:11:02;23.90;78.90
20827;DHT22;10574;52.508;13.236;2023-05-10T11:13:30;24.00;78.60
20827;DHT22;10574;52.508;13.236;2023-05-10T11:15:58;23.70;79.70
20827;DHT22;10574;52.508;13.236;2023-05-10T11:18:30;23.20;77.50
20827;DHT22;10574;52.508;13.236;2023-05-10T11:20:59;23.40;76.80
20827;DHT22;10574;52.508;13.236;2023-05-10T11:26:08;23.30;77.40
20827;DHT22;10574;52.508;13.236;2023-05-10T11:28:41;23.40;76.40
20827;DHT22;10574;52.508;13.236;2023-05-10T11:31:09;23.80;77.00
20827;DHT22;10574;52.508;13.236;2023-05-10T11:33:45;24.00;75.50
20827;DHT22;10574;52.508;13.236;2023-05-10T11:36:15;23.50;77.30
20827;DHT22;10574;52.508;13.236;2023-05-10T11:38:44;23.80;76.00
20827;DHT22;10574;52.508;13.236;2023-05-10T11:41:12;23.90;76.70
20827;DHT22;10574;52.508;13.236;2023-05-10T11:43:40;24.10;75.00
20827;DHT22;10574;52.508;13.236;2023-05-10T11:46:10;24.50;74.50
20827;DHT22;10574;52.508;13.236;2023-05-10T11:48:42;24.40;72.70
20827;DHT22;10574;52.508;13.236;2023-05-10T11:51:11;24.20;74.80
20827;DHT22;10574;52.508;13.236;2023-05-10T11:53:38;24.30;74.50
20827;DHT22;10574;52.508;13.236;2023-05-10T11:56:10;24.30;72.90
20827;DHT22;10574;52.508;13.236;2023-05-10T11:58:38;24.10;72.70
20827;DHT22;10574;52.508;13.236;2023-05-10T12:01:07;24.20;72.20
20827;DHT22;10574;52.508;13.236;2023-05-10T12:03:36;24.10;72.30
20827;DHT22;10574;52.508;13.236;2023-05-10T12:06:04;24.20;72.30
20827;DHT22;10574;52.508;13.236;2023-05-10T12:08:32;24.20;73.40
20827;DHT22;10574;52.508;13.236;2023-05-10T12:11:08;24.00;73.50
20827;DHT22;10574;52.508;13.236;2023-05-10T12:13:42;23.90;73.80
20827;DHT22;10574;52.508;13.236;2023-05-10T12:16:14;24.00;70.40
20827;DHT22;10574;52.508;13.236;2023-05-10T12:18:44;24.10;72.90
20827;DHT22;10574;52.508;13.236;2023-05-10T12:21:12;24.60;70.60
20827;DHT22;10574;52.508;13.236;2023-05-10T12:23:40;24.80;69.70
20827;DHT22;10574;52.508;13.236;2023-05-10T12:26:11;25.20;71.10
20827;DHT22;10574;52.508;13.236;2023-05-10T12:28:39;25.20;70.20
20827;DHT22;10574;52.508;13.236;2023-05-10T12:31:07;24.80;67.10
20827;DHT22;10574;52.508;13.236;2023-05-10T12:33:40;24.50;69.30
20827;DHT22;10574;52.508;13.236;2023-05-10T12:36:13;24.50;69.10
20827;DHT22;10574;52.508;13.236;2023-05-10T12:38:43;24.00;69.50
20827;DHT22;10574;52.508;13.236;2023-05-10T12:41:14;24.10;69.80
20827;DHT22;10574;52.508;13.236;2023-05-10T12:43:42;24.40;69.90
20827;DHT22;10574;52.508;13.236;2023-05-10T12:46:12;24.70;71.60
20827;DHT22;10574;52.508;13.236;2023-05-10T12:48:40;24.60;68.80
20827;DHT22;10574;52.508;13.236;2023-05-10T12:51:09;25.00;69.80
20827;DHT22;10574;52.508;13.236;2023-05-10T12:53:38;24.90;68.60
20827;DHT22;10574;52.508;13.236;2023-05-10T12:56:07;24.60;67.20
20827;DHT22;10574;52.508;13.236;2023-05-10T12:58:35;24.40;70.80
20827;DHT22;10574;52.508;13.236;2023-05-10T13:01:04;24.60;68.10
20827;DHT22;10574;52.508;13.236;2023-05-10T13:03:32;24.80;68.90
20827;DHT22;10574;52.508;13.236;2023-05-10T13:05:59;24.50;68.40
20827;DHT22;10574;52.508;13.236;2023-05-10T13:08:27;24.70;68.80
20827;DHT22;10574;52.508;13.236;2023-05-10T13:10:56;24.80;68.20
20827;DHT22;10574;52.508;13.236;2023-05-10T13:13:24;24.50;67.00
20827;DHT22;10574;52.508;13.236;2023-05-10T13:15:52;24.10;68.10
20827;DHT22;10574;52.508;13.236;2023-05-10T13:18:20;23.80;69.90
20827;DHT22;10574;52.508;13.236;2023-05-10T13:20:48;24.40;70.70
20827;DHT22;10574;52.508;13.236;2023-05-10T13:23:16;24.70;66.90
20827;DHT22;10574;52.508;13.236;2023-05-10T13:25:43;24.70;67.90
20827;DHT22;10574;52.508;13.236;2023-05-10T13:28:11;25.00;68.10
20827;DHT22;10574;52.508;13.236;2023-05-10T13:30:39;24.40;68.20
20827;DHT22;10574;52.508;13.236;2023-05-10T13:33:07;24.10;70.90
20827;DHT22;10574;52.508;13.236;2023-05-10T13:35:35;24.20;69.40
20827;DHT22;10574;52.508;13.236;2023-05-10T13:38:02;24.50;68.90
20827;DHT22;10574;52.508;13.236;2023-05-10T13:40:30;24.70;68.10
20827;DHT22;10574;52.508;13.236;2023-05-10T13:42:58;24.50;67.30
20827;DHT22;10574;52.508;13.236;2023-05-10T13:45:26;24.20;67.10
20827;DHT22;10574;52.508;13.236;2023-05-10T13:47:53;23.80;68.90
20827;DHT22;10574;52.508;13.236;2023-05-10T13:50:22;23.50;69.70
20827;DHT22;10574;52.508;13.236;2023-05-10T13:52:50;23.40;71.30
20827;DHT22;10574;52.508;13.236;2023-05-10T13:55:18;23.50;70.10
20827;DHT22;10574;52.508;13.236;2023-05-10T13:57:45;23.70;71.60
20827;DHT22;10574;52.508;13.236;2023-05-10T14:00:13;24.00;69.90
20827;DHT22;10574;52.508;13.236;2023-05-10T14:02:41;24.10;68.70
20827;DHT22;10574;52.508;13.236;2023-05-10T14:05:09;24.30;67.80
20827;DHT22;10574;52.508;13.236;2023-05-10T14:07:37;24.40;67.50
20827;DHT22;10574;52.508;13.236;2023-05-10T14:10:05;24.50;66.80
20827;DHT22;10574;52.508;13.236;2023-05-10T14:12:32;24.90;67.40
20827;DHT22;10574;52.508;13.236;2023-05-10T14:15:00;24.90;66.70
20827;DHT22;10574;52.508;13.236;2023-05-10T14:17:29;24.60;67.10
20827;DHT22;10574;52.508;13.236;2023-05-10T14:19:56;24.10;66.90
20827;DHT22;10574;52.508;13.236;2023-05-10T14:22:24;23.90;68.70
20827;DHT22;10574;52.508;13.236;2023-05-10T14:24:52;24.00;68.20
20827;DHT22;10574;52.508;13.236;2023-05-10T14:27:19;24.10;67.90
20827;DHT22;10574;52.508;13.236;2023-05-10T14:29:47;24.00;67.70
20827;DHT22;10574;52.508;13.236;2023-05-10T14:32:15;23.50;68.30
20827;DHT22;10574;52.508;13.236;2023-05-10T14:34:43;23.40;69.60
20827;DHT22;10574;52.508;13.236;2023-05-10T14:37:13;23.20;68.70
20827;DHT22;10574;52.508;13.236;2023-05-10T14:39:41;23.30;68.30
20827;DHT22;10574;52.508;13.236;2023-05-10T14:42:09;23.30;69.50
20827;DHT22;10574;52.508;13.236;2023-05-10T14:44:37;23.20;69.10
20827;DHT22;10574;52.508;13.236;2023-05-10T14:47:04;23.30;69.20
20827;DHT22;10574;52.508;13.236;2023-05-10T14:49:32;23.40;68.80
20827;DHT22;10574;52.508;13.236;2023-05-10T14:52:00;23.30;68.60
20827;DHT22;10574;52.508;13.236;2023-05-10T14:54:29;23.30;67.90
20827;DHT22;10574;52.508;13.236;2023-05-10T14:56:57;23.40;68.80
20827;DHT22;10574;52.508;13.236;2023-05-10T14:59:25;23.60;68.10
20827;DHT22;10574;52.508;13.236;2023-05-10T15:01:53;23.70;67.70
20827;DHT22;10574;52.508;13.236;2023-05-10T15:04:21;23.60;67.30
20827;DHT22;10574;52.508;13.236;2023-05-10T15:06:49;23.70;67.80
20827;DHT22;10574;52.508;13.236;2023-05-10T15:09:17;23.50;68.20
20827;DHT22;10574;52.508;13.236;2023-05-10T15:11:45;23.50;68.40
20827;DHT22;10574;52.508;13.236;2023-05-10T15:14:13;23.50;68.90
20827;DHT22;10574;52.508;13.236;2023-05-10T15:16:40;23.50;68.20
20827;DHT22;10574;52.508;13.236;2023-05-10T15:19:08;23.40;67.40
20827;DHT22;10574;52.508;13.236;2023-05-10T15:21:36;23.30;68.40
20827;DHT22;10574;52.508;13.236;2023-05-10T15:24:06;23.20;68.40
20827;DHT22;10574;52.508;13.236;2023-05-10T15:26:33;23.20;67.80
20827;DHT22;10574;52.508;13.236;2023-05-10T15:29:01;23.10;68.80
20827;DHT22;10574;52.508;13.236;2023-05-10T15:31:29;23.20;69.60
20827;DHT22;10574;52.508;13.236;2023-05-10T15:34:00;23.30;69.30
20827;DHT22;10574;52.508;13.236;2023-05-10T15:36:28;23.60;70.10
20827;DHT22;10574;52.508;13.236;2023-05-10T15:38:55;23.80;69.10
20827;DHT22;10574;52.508;13.236;2023-05-10T15:41:23;23.70;68.90
20827;DHT22;10574;52.508;13.236;2023-05-10T15:43:51;23.60;68.50
20827;DHT22;10574;52.508;13.236;2023-05-10T15:46:19;23.60;69.50
20827;DHT22;10574;52.508;13.236;2023-05-10T15:48:47;23.80;68.90
20827;DHT22;10574;52.508;13.236;2023-05-10T15:51:14;23.90;68.70
20827;DHT22;10574;52.508;13.236;2023-05-10T15:53:42;23.90;69.20
20827;DHT22;10574;52.508;13.236;2023-05-10T15:56:10;23.90;68.00